Time;durP1;ratioP1;P1;durP2;ratioP2;P2;SDS_P1;SDS_P2;PMS_P1;PMS_P2;Temp;Humidity;BMP_temperature;BMP_pressure;BME280_temperature;BME280_humidity;BME280_pressure;Samples;Min_cycle;Max_cycle;Signal;HPM_P1;HPM_P2
2022/01/04 00:01:31;;;;;;;4.13;1.52;;;;;;;14.12;51.96;99902.16;5037684;28;20124;-69
2022/01/04 00:03:58;;;;;;;2.75;1.40;;;;;;;14.11;52.11;99901.31;5039036;28;20549;-68
2022/01/04 00:06:25;;;;;;;2.50;1.40;;;;;;;14.09;51.84;99898.72;5038439;28;20127;-68
2022/01/04 00:08:55;;;;;;;3.85;1.70;;;;;;;14.08;52.24;99891.53;5044163;28;20087;-68
2022/01/04 00:11:32;;;;;;;4.28;1.92;;;;;;;14.06;52.46;99885.38;5042259;28;20065;-69
2022/01/04 00:13:58;;;;;;;2.47;1.45;;;;;;;14.07;52.22;99884.38;5039014;28;20132;-69
2022/01/04 00:16:25;;;;;;;3.58;1.77;;;;;;;14.08;52.04;99882.50;5041054;28;20037;-69
2022/01/04 00:18:51;;;;;;;4.40;1.83;;;;;;;14.06;52.04;99882.66;5043734;28;20573;-68
2022/01/04 00:21:18;;;;;;;4.78;1.83;;;;;;;14.06;52.07;99885.38;5039342;28;20746;-68
2022/01/04 00:23:44;;;;;;;3.50;1.25;;;;;;;14.06;52.08;99884.53;5042686;28;20048;-68
2022/01/04 00:26:11;;;;;;;2.40;1.20;;;;;;;14.05;51.92;99880.06;5036130;28;20113;-69
2022/01/04 00:28:37;;;;;;;2.33;0.90;;;;;;;14.05;51.81;99875.47;5042420;28;20400;-69
2022/01/04 00:31:04;;;;;;;2.13;0.90;;;;;;;14.04;51.87;99870.16;5044247;28;20116;-69
2022/01/04 00:33:31;;;;;;;1.25;0.63;;;;;;;14.04;51.72;99861.97;5042723;28;20045;-68
2022/01/04 00:35:57;;;;;;;2.72;0.70;;;;;;;14.02;52.12;99851.19;5037344;28;20077;-68
2022/01/04 00:38:24;;;;;;;1.45;0.77;;;;;;;14.01;51.97;99843.16;5038969;28;20040;-69
2022/01/04 00:40:50;;;;;;;1.52;0.60;;;;;;;13.99;51.91;99840.59;5037968;28;20055;-69
2022/01/04 00:43:17;;;;;;;1.63;0.70;;;;;;;13.99;52.21;99831.53;5039391;28;20131;-69
2022/01/04 00:45:45;;;;;;;1.83;0.70;;;;;;;13.97;52.13;99819.91;5036824;28;20079;-69
2022/01/04 00:50:38;;;;;;;0.88;0.60;;;;;;;13.97;52.44;99820.78;5046791;28;20640;-68
2022/01/04 00:53:07;;;;;;;1.35;0.70;;;;;;;13.98;52.62;99810.72;5046327;28;20400;-68
2022/01/04 00:55:34;;;;;;;1.10;0.70;;;;;;;13.98;52.67;99810.72;5044317;28;20086;-69
2022/01/04 00:58:01;;;;;;;2.58;0.82;;;;;;;13.98;52.48;99808.84;5044670;28;20076;-68
2022/01/04 01:00:33;;;;;;;2.55;1.00;;;;;;;13.96;52.75;99797.22;5037594;28;20434;-69
2022/01/04 01:03:00;;;;;;;2.33;1.20;;;;;;;13.98;52.28;99789.75;5032306;28;20045;-68
2022/01/04 01:05:27;;;;;;;2.63;1.30;;;;;;;13.99;52.66;99783.28;5037178;28;20041;-68
2022/01/04 01:07:54;;;;;;;1.88;1.00;;;;;;;14.00;52.53;99781.41;5036414;28;20393;-68
2022/01/04 01:10:41;;;;;;;1.98;0.90;;;;;;;14.00;52.68;99779.53;5041393;28;20044;-69
2022/01/04 01:13:09;;;;;;;1.27;0.68;;;;;;;13.99;52.65;99764.19;5031996;28;20409;-68
2022/01/04 01:15:37;;;;;;;1.70;0.73;;;;;;;13.99;52.60;99769.63;5042733;28;20517;-68
2022/01/04 01:18:04;;;;;;;1.48;0.68;;;;;;;13.99;52.65;99761.44;5034064;28;20502;-68
2022/01/04 01:20:30;;;;;;;1.33;0.70;;;;;;;13.99;52.70;99752.41;5035996;28;20140;-69
2022/01/04 01:22:58;;;;;;;0.98;0.70;;;;;;;13.99;52.58;99766.03;5033080;28;20053;-68
2022/01/04 01:25:25;;;;;;;1.17;0.60;;;;;;;13.98;52.45;99762.47;5034323;28;20049;-69
2022/01/04 01:27:51;;;;;;;0.90;0.60;;;;;;;13.98;52.61;99747.94;5034944;28;20069;-68
2022/01/04 01:30:18;;;;;;;1.88;0.70;;;;;;;13.98;53.08;99751.53;5036203;28;20108;-68
2022/01/04 01:32:45;;;;;;;1.90;0.60;;;;;;;13.98;52.87;99746.09;5040724;28;20514;-69
2022/01/04 01:35:12;;;;;;;1.40;0.52;;;;;;;13.97;52.71;99741.63;5042223;28;20069;-68
2022/01/04 01:37:38;;;;;;;1.85;0.63;;;;;;;13.97;53.09;99749.81;5038694;28;20049;-68
2022/01/04 01:40:05;;;;;;;0.50;0.40;;;;;;;13.97;52.84;99752.56;5039508;28;20056;-68
2022/01/04 01:42:32;;;;;;;1.45;0.77;;;;;;;13.96;52.95;99750.81;5028931;28;20422;-68
2022/01/04 01:44:59;;;;;;;0.93;0.55;;;;;;;13.97;53.14;99744.38;5036239;28;20095;-69
2022/01/04 01:47:25;;;;;;;2.40;0.70;;;;;;;13.95;52.86;99748.25;5037507;28;20056;-68
2022/01/04 01:49:53;;;;;;;1.70;0.52;;;;;;;13.98;53.12;99743.34;5043662;28;20132;-68
2022/01/04 01:52:20;;;;;;;2.55;0.80;;;;;;;13.97;53.06;99740.78;5034517;28;20124;-68
2022/01/04 01:54:47;;;;;;;1.15;0.60;;;;;;;13.94;53.05;99736.47;5040493;28;20114;-69
2022/01/04 01:57:13;;;;;;;3.35;1.15;;;;;;;13.96;53.26;99725.41;5045256;28;20051;-69
2022/01/04 01:59:40;;;;;;;1.75;0.60;;;;;;;13.95;53.01;99732.72;5042079;28;20049;-68
2022/01/04 02:02:06;;;;;;;1.73;0.57;;;;;;;13.96;52.98;99731.72;5036550;28;20041;-68
2022/01/04 02:04:33;;;;;;;1.85;0.50;;;;;;;13.95;52.89;99727.28;5044852;28;20049;-69
2022/01/04 02:07:00;;;;;;;1.35;0.60;;;;;;;13.95;52.86;99730.00;5043739;28;20136;-68
2022/01/04 02:09:27;;;;;;;1.02;0.57;;;;;;;13.95;53.05;99729.13;5038372;28;20475;-69
2022/01/04 02:11:54;;;;;;;1.85;0.70;;;;;;;13.95;52.91;99715.50;5038415;28;20521;-68
2022/01/04 02:14:21;;;;;;;1.63;0.70;;;;;;;13.94;53.19;99719.22;5040253;28;20049;-69
2022/01/04 02:16:47;;;;;;;1.45;0.60;;;;;;;13.93;53.04;99712.91;5045584;28;20040;-69
2022/01/04 02:19:16;;;;;;;1.83;0.65;;;;;;;13.93;53.35;99714.78;5036082;28;20045;-68
2022/01/04 02:21:43;;;;;;;0.95;0.70;;;;;;;13.92;52.82;99702.16;5035693;28;20073;-69
2022/01/04 02:24:09;;;;;;;1.95;0.80;;;;;;;13.91;52.88;99697.72;5032863;28;20412;-69
2022/01/04 02:26:39;;;;;;;0.90;0.50;;;;;;;13.91;53.11;99698.59;5048903;28;20542;-68
2022/01/04 02:29:07;;;;;;;1.90;0.70;;;;;;;13.91;53.33;99695.84;5038037;28;20132;-68
2022/01/04 02:31:36;;;;;;;2.00;0.80;;;;;;;13.91;53.37;99690.41;5046223;28;20041;-69
2022/01/04 02:34:03;;;;;;;1.67;0.80;;;;;;;13.89;53.05;99689.69;5040376;28;20470;-68
2022/01/04 02:36:30;;;;;;;1.35;0.75;;;;;;;13.89;53.30;99686.09;5045097;28;20048;-68
2022/01/04 02:38:56;;;;;;;1.75;0.70;;;;;;;13.90;53.10;99676.91;5041051;28;20128;-68
2022/01/04 02:41:23;;;;;;;1.52;0.85;;;;;;;13.88;53.39;99687.09;5045062;28;20401;-68
2022/01/04 02:43:49;;;;;;;4.13;0.90;;;;;;;13.89;53.43;99677.91;5045315;28;20136;-69
2022/01/04 02:46:16;;;;;;;1.42;0.75;;;;;;;13.88;53.42;99670.72;5040655;28;20041;-68
2022/01/04 02:48:44;;;;;;;1.77;0.90;;;;;;;13.89;53.16;99665.13;5044429;28;20135;-69
2022/01/04 02:51:12;;;;;;;1.30;0.80;;;;;;;13.88;53.12;99663.41;5044674;28;20056;-68
2022/01/04 02:53:39;;;;;;;2.58;1.00;;;;;;;13.87;53.41;99661.69;5044949;28;20060;-68
2022/01/04 02:56:06;;;;;;;2.95;1.10;;;;;;;13.87;53.30;99661.69;5048199;28;20048;-69
2022/01/04 02:58:32;;;;;;;3.15;1.10;;;;;;;13.86;53.35;99665.44;5038028;28;20163;-68
2022/01/04 03:00:59;;;;;;;1.90;1.00;;;;;;;13.85;53.17;99660.97;5035355;28;20056;-68
2022/01/04 03:03:27;;;;;;;2.60;1.02;;;;;;;13.84;53.02;99656.53;5040180;28;20403;-68
2022/01/04 03:05:53;;;;;;;1.90;1.10;;;;;;;13.83;53.21;99660.28;5038793;28;20041;-68
2022/01/04 03:08:20;;;;;;;1.42;0.93;;;;;;;13.83;53.33;99660.28;5042282;28;20065;-69
2022/01/04 03:10:46;;;;;;;1.27;0.90;;;;;;;13.82;53.49;99654.97;5039421;28;20072;-69
2022/01/04 03:13:16;;;;;;;1.30;0.90;;;;;;;13.82;53.66;99653.13;5042392;28;20045;-68
2022/01/04 03:15:46;;;;;;;1.65;1.00;;;;;;;13.84;53.29;99653.78;5032682;28;20071;-68
2022/01/04 03:18:14;;;;;;;1.88;1.00;;;;;;;13.81;53.36;99645.06;5044383;28;20053;-68
2022/01/04 03:20:41;;;;;;;2.40;1.10;;;;;;;13.80;53.64;99649.66;5040232;28;20554;-69
2022/01/04 03:23:10;;;;;;;2.22;1.00;;;;;;;13.80;53.57;99630.56;5044058;28;20124;-68
2022/01/04 03:25:38;;;;;;;3.03;1.15;;;;;;;13.80;53.64;99627.84;5029307;28;20442;-69
2022/01/04 03:28:05;;;;;;;1.73;0.98;;;;;;;13.78;53.39;99621.69;5043610;28;20087;-68
2022/01/04 03:30:31;;;;;;;2.72;1.02;;;;;;;13.78;53.71;99613.50;5029454;28;20052;-69
2022/01/04 03:32:58;;;;;;;1.63;0.90;;;;;;;13.77;53.55;99603.59;5032005;28;20049;-68
2022/01/04 03:35:24;;;;;;;3.28;1.10;;;;;;;13.77;53.35;99600.00;5040791;28;20041;-69
2022/01/04 03:37:51;;;;;;;2.72;1.05;;;;;;;13.76;53.70;99592.81;5039508;28;20332;-68
2022/01/04 03:40:17;;;;;;;1.92;1.00;;;;;;;13.76;53.79;99573.72;5039483;28;20041;-68
2022/01/04 03:42:44;;;;;;;2.67;1.00;;;;;;;13.75;53.51;99558.41;5044240;28;20536;-69
2022/01/04 03:45:11;;;;;;;3.17;1.10;;;;;;;13.75;53.75;99569.31;5037088;28;20052;-68
2022/01/04 03:47:37;;;;;;;1.98;1.10;;;;;;;13.74;53.62;99557.53;5031791;28;20060;-68
2022/01/04 03:50:04;;;;;;;2.35;1.10;;;;;;;13.73;53.72;99555.81;5044916;28;20489;-68
2022/01/04 03:52:31;;;;;;;1.67;1.02;;;;;;;13.72;53.71;99548.66;5048053;28;20041;-68
2022/01/04 03:54:57;;;;;;;2.00;1.20;;;;;;;13.71;54.00;99542.34;5047024;28;20314;-68
2022/01/04 03:57:24;;;;;;;2.88;1.05;;;;;;;13.71;53.75;99538.75;5046451;28;20183;-69
2022/01/04 03:59:50;;;;;;;2.20;1.15;;;;;;;13.71;53.93;99536.03;5045931;28;20128;-68
2022/01/04 04:02:17;;;;;;;2.33;1.20;;;;;;;13.70;53.99;99537.88;5044757;28;20341;-68
2022/01/04 04:04:44;;;;;;;1.80;1.00;;;;;;;13.70;53.89;99534.31;5036174;28;20434;-69
2022/01/04 04:07:11;;;;;;;1.98;1.15;;;;;;;13.70;53.71;99532.44;5042138;28;20136;-69
2022/01/04 04:09:37;;;;;;;2.72;1.20;;;;;;;13.70;54.03;99517.94;5040410;28;20045;-68
2022/01/04 04:12:04;;;;;;;1.48;1.05;;;;;;;13.69;53.80;99522.53;5045619;28;20101;-68
2022/01/04 04:14:31;;;;;;;3.80;1.15;;;;;;;13.68;54.02;99514.50;5037174;28;20441;-68
2022/01/04 04:17:10;;;;;;;2.00;1.02;;;;;;;13.68;53.89;99512.63;5042001;28;20047;-68
2022/01/04 04:19:37;;;;;;;2.35;1.17;;;;;;;13.68;53.69;99492.69;5037124;28;20104;-68
2022/01/04 04:22:04;;;;;;;2.83;1.10;;;;;;;13.68;53.74;99489.94;5051384;28;20072;-69
2022/01/04 04:24:30;;;;;;;1.92;1.08;;;;;;;13.69;54.01;99483.50;5042842;28;20076;-69
2022/01/04 04:26:57;;;;;;;1.80;1.00;;;;;;;13.67;54.01;99472.72;5041202;28;20133;-68
2022/01/04 04:29:23;;;;;;;2.63;1.13;;;;;;;13.66;53.89;99471.03;5039328;28;20429;-69
2022/01/04 04:31:49;;;;;;;2.05;1.17;;;;;;;13.66;53.61;99476.50;5041551;28;20508;-68
2022/01/04 04:34:16;;;;;;;3.33;1.30;;;;;;;13.65;53.96;99463.88;5037814;28;20128;-68
2022/01/04 04:36:43;;;;;;;3.05;1.27;;;;;;;13.65;53.99;99460.28;5036743;28;20522;-68
2022/01/04 04:39:09;;;;;;;2.53;1.30;;;;;;;13.64;53.94;99443.06;5036732;28;20139;-69
2022/01/04 04:41:36;;;;;;;3.15;1.40;;;;;;;13.64;53.59;99439.47;5038159;28;20124;-68
2022/01/04 04:44:02;;;;;;;3.97;1.52;;;;;;;13.64;54.05;99439.47;5042117;28;20049;-68
2022/01/04 04:46:29;;;;;;;3.08;1.17;;;;;;;13.63;53.95;99432.31;5040987;28;20045;-68
2022/01/04 04:48:55;;;;;;;2.45;1.27;;;;;;;13.62;53.78;99427.84;5032285;28;20047;-69
2022/01/04 04:51:22;;;;;;;2.85;1.40;;;;;;;13.61;53.87;99432.44;5041256;28;20520;-69
2022/01/04 04:53:48;;;;;;;2.67;1.42;;;;;;;13.61;53.96;99423.41;5039285;28;20049;-68
2022/01/04 04:56:15;;;;;;;2.72;1.55;;;;;;;13.61;53.97;99420.69;5041925;28;20111;-69
2022/01/04 04:58:41;;;;;;;2.47;1.40;;;;;;;13.60;54.02;99428.00;5035726;28;20477;-68
2022/01/04 05:01:08;;;;;;;3.72;1.48;;;;;;;13.60;53.88;99432.59;5045850;28;20125;-68
2022/01/04 05:03:35;;;;;;;3.28;1.55;;;;;;;13.60;54.10;99429.88;5041401;28;20536;-68
2022/01/04 05:06:02;;;;;;;3.38;1.80;;;;;;;13.58;53.80;99438.25;5042642;28;20120;-68
2022/01/04 05:08:28;;;;;;;3.60;1.77;;;;;;;13.59;53.84;99430.88;5037489;28;20044;-69
2022/01/04 05:10:55;;;;;;;3.55;1.77;;;;;;;13.58;53.65;99427.34;5040830;28;20040;-68
2022/01/04 05:13:21;;;;;;;2.67;1.58;;;;;;;13.59;54.01;99425.44;5045251;28;20055;-68
2022/01/04 05:15:48;;;;;;;3.15;1.60;;;;;;;13.58;53.97;99434.66;5041565;28;20066;-69
2022/01/04 05:18:14;;;;;;;2.95;1.55;;;;;;;13.57;54.09;99419.31;5041751;28;20110;-68
2022/01/04 05:20:41;;;;;;;3.35;1.80;;;;;;;13.56;53.97;99426.63;5053504;28;20433;-68
2022/01/04 05:23:08;;;;;;;3.08;1.42;;;;;;;13.56;54.00;99428.50;5043788;28;20076;-68
2022/01/04 05:25:34;;;;;;;2.97;1.52;;;;;;;13.55;53.89;99424.91;5026833;28;20128;-68
2022/01/04 05:28:01;;;;;;;2.58;1.38;;;;;;;13.55;53.94;99424.03;5032687;28;20095;-68
2022/01/04 05:30:27;;;;;;;2.75;1.38;;;;;;;13.54;54.14;99419.59;5028593;28;20041;-68
2022/01/04 05:32:54;;;;;;;1.90;1.20;;;;;;;13.55;53.80;99421.31;5025445;28;20132;-68
2022/01/04 05:35:20;;;;;;;2.67;1.20;;;;;;;13.54;53.95;99416.88;5028957;28;20513;-68
2022/01/04 05:37:47;;;;;;;2.65;1.30;;;;;;;13.54;53.80;99423.19;5038782;28;20057;-68
2022/01/04 05:40:13;;;;;;;2.20;1.40;;;;;;;13.54;54.04;99423.19;5030864;28;20049;-68
2022/01/04 05:42:40;;;;;;;3.08;1.58;;;;;;;13.54;54.09;99422.31;5032516;28;20132;-69
2022/01/04 05:45:07;;;;;;;3.20;1.65;;;;;;;13.54;54.00;99425.91;5034842;28;20124;-69
2022/01/04 05:47:34;;;;;;;2.95;1.50;;;;;;;13.54;54.20;99425.06;5026344;28;20057;-68
2022/01/04 05:50:00;;;;;;;4.68;1.70;;;;;;;13.53;53.96;99418.75;5039229;28;20453;-69
2022/01/04 05:52:27;;;;;;;3.75;1.52;;;;;;;13.54;53.98;99416.88;5033073;28;20125;-69
2022/01/04 05:54:53;;;;;;;2.53;1.58;;;;;;;13.53;54.06;99407.84;5036935;28;20049;-68
2022/01/04 05:57:20;;;;;;;3.95;2.20;;;;;;;13.52;54.41;99405.25;5028001;28;20049;-68
2022/01/04 05:59:46;;;;;;;4.53;2.08;;;;;;;13.52;54.15;99400.66;5037504;28;20077;-68
2022/01/04 06:02:13;;;;;;;3.03;1.80;;;;;;;13.51;54.11;99398.94;5036273;28;20057;-68
2022/01/04 06:04:39;;;;;;;4.40;2.30;;;;;;;13.52;54.37;99392.47;5040725;28;20058;-68
2022/01/04 06:07:06;;;;;;;4.43;1.88;;;;;;;13.52;53.94;99378.84;5046942;28;20666;-69
2022/01/04 06:09:41;;;;;;;5.13;2.10;;;;;;;13.52;54.02;99383.44;5041690;28;20140;-68
2022/01/04 06:14:54;;;;;;;6.30;2.60;;;;;;;13.50;54.02;99374.59;5041704;28;20053;-69
2022/01/04 06:17:29;;;;;;;3.90;2.20;;;;;;;13.53;54.42;99379.72;5041082;28;20100;-68
2022/01/04 06:19:58;;;;;;;4.05;2.50;;;;;;;13.50;53.96;99374.59;5048127;28;20084;-68
2022/01/04 06:22:26;;;;;;;5.03;2.38;;;;;;;13.51;54.21;99370.81;5036469;28;20434;-68
2022/01/04 06:24:54;;;;;;;4.22;2.13;;;;;;;13.51;54.16;99368.09;5048574;28;20102;-68
2022/01/04 06:27:21;;;;;;;4.63;2.58;;;;;;;13.50;54.19;99380.03;5043453;28;20048;-68
2022/01/04 06:29:48;;;;;;;5.72;2.45;;;;;;;13.49;54.19;99387.38;5037004;28;20174;-68
2022/01/04 06:32:16;;;;;;;4.95;2.38;;;;;;;13.50;54.01;99382.78;5024239;28;20465;-68
2022/01/04 06:34:44;;;;;;;4.78;2.70;;;;;;;13.49;54.25;99368.28;5037093;28;20132;-68
2022/01/04 06:37:11;;;;;;;4.50;2.55;;;;;;;13.49;54.29;99362.81;5043343;28;20486;-68
2022/01/04 06:39:38;;;;;;;4.38;2.30;;;;;;;13.48;54.46;99352.06;5042599;28;20610;-68
2022/01/04 06:42:05;;;;;;;5.25;2.42;;;;;;;13.49;54.01;99349.19;5034095;28;20042;-68
2022/01/04 06:44:32;;;;;;;5.78;2.70;;;;;;;13.49;53.98;99340.16;5039124;28;20114;-68
2022/01/04 06:46:59;;;;;;;5.63;3.13;;;;;;;13.48;54.20;99335.72;5036889;28;20088;-68
2022/01/04 06:49:26;;;;;;;5.93;3.47;;;;;;;13.49;54.38;99331.97;5041939;28;20561;-68
2022/01/04 06:51:52;;;;;;;6.18;3.30;;;;;;;13.47;53.98;99334.00;5046605;28;20396;-68
2022/01/04 06:54:20;;;;;;;5.63;3.15;;;;;;;13.48;54.41;99335.72;5042917;28;20047;-68
2022/01/04 06:56:48;;;;;;;5.30;3.33;;;;;;;13.47;54.08;99328.53;5036248;28;20512;-68
2022/01/04 06:59:16;;;;;;;5.65;2.90;;;;;;;13.47;54.29;99334.00;5034412;28;20311;-68
2022/01/04 07:01:44;;;;;;;5.57;2.90;;;;;;;13.45;54.01;99334.16;5049832;28;20048;-68
2022/01/04 07:04:11;;;;;;;4.70;2.70;;;;;;;13.45;53.99;99336.00;5043079;28;20046;-68
2022/01/04 07:06:38;;;;;;;5.75;2.88;;;;;;;13.44;53.99;99337.88;5035067;28;20131;-68
2022/01/04 07:09:05;;;;;;;4.50;2.70;;;;;;;13.44;54.02;99335.16;5041019;28;20615;-68
2022/01/04 07:11:32;;;;;;;5.47;2.55;;;;;;;13.44;54.20;99339.75;5038361;28;20396;-68
2022/01/04 07:14:00;;;;;;;4.78;2.88;;;;;;;13.44;54.14;99342.47;5037432;28;20052;-68
2022/01/04 07:16:26;;;;;;;4.90;2.63;;;;;;;13.42;54.28;99333.63;5041710;28;20414;-68
2022/01/04 07:18:53;;;;;;;4.93;2.80;;;;;;;13.41;53.94;99338.22;5043211;28;20521;-68
2022/01/04 07:21:21;;;;;;;5.35;2.55;;;;;;;13.41;54.14;99338.22;5037879;28;20049;-68
2022/01/04 07:23:51;;;;;;;4.70;2.55;;;;;;;13.42;54.01;99333.63;5040959;28;20495;-70
2022/01/04 07:26:17;;;;;;;4.53;2.58;;;;;;;13.40;54.39;99320.16;5047307;28;20041;-68
2022/01/04 07:28:46;;;;;;;6.13;2.97;;;;;;;13.42;54.30;99322.72;5049182;28;20147;-68
2022/01/04 07:31:13;;;;;;;4.50;2.40;;;;;;;13.41;54.32;99307.38;5035591;28;20145;-68
2022/01/04 07:33:40;;;;;;;4.50;2.70;;;;;;;13.40;54.10;99308.38;5045576;28;20045;-68
2022/01/04 07:36:08;;;;;;;4.68;2.60;;;;;;;13.41;54.03;99319.13;5040283;28;20045;-67
2022/01/04 07:38:36;;;;;;;4.70;2.72;;;;;;;13.40;54.58;99314.69;5045670;28;20076;-69
2022/01/04 07:41:03;;;;;;;5.00;2.90;;;;;;;13.40;54.25;99317.41;5035138;28;20503;-68
2022/01/04 07:43:31;;;;;;;8.25;4.75;;;;;;;13.40;54.52;99305.66;5037270;28;20485;-68
2022/01/04 07:45:57;;;;;;;6.47;3.30;;;;;;;13.39;54.10;99312.13;5038605;28;20145;-69
2022/01/04 07:48:24;;;;;;;6.43;3.13;;;;;;;13.39;54.34;99304.81;5044674;28;20241;-69
2022/01/04 07:50:55;;;;;;;4.63;2.70;;;;;;;13.39;54.36;99296.63;5037623;28;20049;-69
2022/01/04 07:53:27;;;;;;;4.75;2.50;;;;;;;13.38;54.09;99297.63;5039105;28;20072;-69
2022/01/04 07:55:54;;;;;;;5.47;2.90;;;;;;;13.37;54.34;99290.47;5035564;28;20807;-69
2022/01/04 07:58:22;;;;;;;5.32;3.10;;;;;;;13.38;54.23;99297.63;5035999;28;20152;-68
2022/01/04 08:00:48;;;;;;;5.25;3.33;;;;;;;13.36;54.46;99296.94;5041791;28;20044;-69
2022/01/04 08:03:15;;;;;;;6.28;3.70;;;;;;;13.37;54.35;99292.34;5038241;28;20045;-69
2022/01/04 08:05:42;;;;;;;6.13;3.97;;;;;;;13.35;54.21;99289.75;5039691;28;20049;-69
2022/01/04 08:08:09;;;;;;;5.03;3.22;;;;;;;13.34;54.61;99288.91;5045560;28;20072;-69
2022/01/04 08:10:36;;;;;;;4.25;2.60;;;;;;;13.34;54.38;99299.81;5034397;28;20146;-69
2022/01/04 08:13:03;;;;;;;5.18;3.05;;;;;;;13.33;54.33;99298.13;5037431;28;20041;-69
2022/01/04 08:15:29;;;;;;;6.13;3.67;;;;;;;13.33;54.36;99310.91;5040359;28;20049;-68
2022/01/04 08:17:57;;;;;;;5.82;3.25;;;;;;;13.33;54.34;99305.44;5043381;28;20573;-69
2022/01/04 08:20:23;;;;;;;6.07;3.75;;;;;;;13.31;54.01;99289.25;5036531;28;20049;-69
2022/01/04 08:22:50;;;;;;;5.05;3.30;;;;;;;13.32;54.37;99301.84;5037431;28;20411;-68
2022/01/04 08:25:16;;;;;;;6.45;3.40;;;;;;;13.30;54.38;99309.31;5041504;28;20045;-68
2022/01/04 08:27:43;;;;;;;4.47;2.72;;;;;;;13.30;54.25;99308.47;5046268;28;20053;-68
2022/01/04 08:30:11;;;;;;;4.75;2.95;;;;;;;13.31;54.43;99305.59;5036884;28;20080;-69
2022/01/04 08:32:38;;;;;;;6.10;3.10;;;;;;;13.30;54.46;99303.03;5036532;28;20045;-69
2022/01/04 08:35:06;;;;;;;5.53;3.05;;;;;;;13.33;54.53;99305.44;5035271;28;20696;-69
2022/01/04 08:37:33;;;;;;;5.93;3.40;;;;;;;13.31;54.36;99302.88;5041792;28;20554;-68
2022/01/04 08:39:59;;;;;;;6.35;3.55;;;;;;;13.31;54.20;99300.16;5037982;28;20052;-69
2022/01/04 08:42:26;;;;;;;5.20;3.20;;;;;;;13.32;54.37;99290.97;5036486;28;20053;-69
2022/01/04 08:44:55;;;;;;;5.80;3.08;;;;;;;13.31;54.31;99286.50;5033173;28;20045;-69
2022/01/04 08:47:23;;;;;;;5.60;3.13;;;;;;;13.31;54.51;99283.78;5043320;28;20041;-68
2022/01/04 08:49:50;;;;;;;6.43;3.90;;;;;;;13.32;54.29;99276.47;5041240;28;20057;-68
2022/01/04 08:52:16;;;;;;;8.30;4.60;;;;;;;13.32;54.38;99279.19;5039393;28;20065;-68
2022/01/04 08:54:43;;;;;;;6.50;4.10;;;;;;;13.31;54.53;99275.63;5039268;28;20053;-68
2022/01/04 08:57:10;;;;;;;8.02;4.93;;;;;;;13.31;54.31;99283.78;5036279;28;20063;-68
2022/01/04 08:59:36;;;;;;;7.53;4.25;;;;;;;13.32;54.40;99292.81;5029440;28;20505;-68
2022/01/04 09:02:03;;;;;;;7.38;4.57;;;;;;;13.32;54.67;99306.44;5040426;28;20060;-68
2022/01/04 09:04:30;;;;;;;6.22;3.85;;;;;;;13.30;54.39;99311.19;5042884;28;20052;-68
2022/01/04 09:06:57;;;;;;;6.30;3.90;;;;;;;13.29;54.74;99315.78;5043392;28;20037;-68
2022/01/04 09:09:24;;;;;;;7.35;4.53;;;;;;;13.30;54.45;99322.97;5037740;28;20087;-68
2022/01/04 09:11:50;;;;;;;7.10;3.67;;;;;;;13.29;54.79;99318.50;5043830;28;20079;-68
2022/01/04 09:14:26;;;;;;;6.53;4.07;;;;;;;13.29;54.75;99320.38;5042964;28;20037;-68
2022/01/04 09:19:39;;;;;;;7.70;4.18;;;;;;;13.29;54.52;99331.28;5021975;28;20139;-68
2022/01/04 09:22:06;;;;;;;6.38;3.95;;;;;;;13.29;54.86;99323.97;5031089;28;20044;-68
2022/01/04 09:24:33;;;;;;;5.22;3.42;;;;;;;13.30;54.80;99338.44;5041116;28;20147;-68
2022/01/04 09:27:04;;;;;;;6.35;3.45;;;;;;;13.30;54.93;99338.44;5039040;28;20037;-68
2022/01/04 09:29:32;;;;;;;6.38;3.70;;;;;;;13.31;54.71;99327.41;5041456;28;20398;-68
2022/01/04 09:32:01;;;;;;;7.38;4.45;;;;;;;13.32;54.74;99320.09;5033670;28;20137;-68
2022/01/04 09:34:29;;;;;;;7.22;4.70;;;;;;;13.32;55.09;99307.31;5039762;28;20080;-68
2022/01/04 09:36:56;;;;;;;7.15;3.75;;;;;;;13.33;54.91;99297.25;5038221;28;20094;-68
2022/01/04 09:39:24;;;;;;;5.97;3.58;;;;;;;13.34;54.78;99294.34;5042140;28;20124;-68
2022/01/04 09:41:53;;;;;;;6.18;3.85;;;;;;;13.36;55.08;99296.06;5043064;28;20051;-69
2022/01/04 09:44:22;;;;;;;7.53;3.85;;;;;;;13.35;55.04;99308.84;5041720;28;20730;-68
2022/01/04 09:46:49;;;;;;;6.47;3.85;;;;;;;13.35;54.80;99303.38;5041895;28;20049;-68
2022/01/04 09:49:16;;;;;;;6.85;3.83;;;;;;;13.36;55.08;99310.56;5036124;28;20084;-67
2022/01/04 09:51:43;;;;;;;5.90;3.35;;;;;;;13.37;54.65;99330.50;5035122;28;20076;-68
2022/01/04 09:54:10;;;;;;;5.88;3.55;;;;;;;13.36;54.62;99324.19;5036817;28;20093;-67
2022/01/04 09:56:37;;;;;;;5.80;3.08;;;;;;;13.38;54.89;99316.72;5043020;28;20045;-68
2022/01/04 09:59:04;;;;;;;5.18;3.00;;;;;;;13.38;54.88;99310.41;5042337;28;20068;-68
2022/01/04 10:01:37;;;;;;;5.65;3.25;;;;;;;13.41;54.79;99304.66;5042365;28;20110;-68
2022/01/04 10:04:24;;;;;;;5.05;3.17;;;;;;;13.37;54.59;99317.72;5045278;28;20476;-68
2022/01/04 10:07:01;;;;;;;5.75;4.20;;;;;;;13.39;54.87;99293.03;5042291;28;20581;-68
2022/01/04 10:09:48;;;;;;;5.78;3.10;;;;;;;13.41;54.85;99299.19;5048726;28;20128;-68
2022/01/04 10:12:17;;;;;;;5.00;2.53;;;;;;;13.38;54.55;99304.94;5032193;28;20120;-67
2022/01/04 10:14:46;;;;;;;5.45;2.83;;;;;;;13.40;54.41;99305.66;5046446;28;20532;-68
2022/01/04 10:17:15;;;;;;;5.43;3.40;;;;;;;13.38;54.64;99291.31;5042671;28;20505;-67
2022/01/04 10:19:45;;;;;;;5.72;2.90;;;;;;;13.39;54.67;99296.63;5040479;28;20060;-68
2022/01/04 10:22:17;;;;;;;5.85;3.22;;;;;;;13.39;54.41;99303.94;5034981;28;20060;-68
2022/01/04 10:24:46;;;;;;;5.22;2.70;;;;;;;13.39;54.54;99315.72;5040866;28;20460;-67
2022/01/04 10:27:26;;;;;;;4.63;2.50;;;;;;;13.40;53.97;99302.94;5046562;28;20044;-67
2022/01/04 10:30:14;;;;;;;4.53;2.90;;;;;;;13.37;54.62;99315.00;5040152;28;20115;-68
2022/01/04 10:33:04;;;;;;;5.32;2.70;;;;;;;13.38;54.66;99313.13;5034595;28;20092;-67
2022/01/04 10:35:34;;;;;;;5.45;2.80;;;;;;;13.35;54.49;99308.84;5038667;28;20127;-67
2022/01/04 10:38:22;;;;;;;4.00;2.53;;;;;;;13.36;54.41;99302.38;5039430;28;20049;-68
2022/01/04 10:40:51;;;;;;;4.05;2.22;;;;;;;13.32;54.58;99307.31;5034993;28;20139;-68
2022/01/04 10:43:23;;;;;;;4.13;2.47;;;;;;;13.33;54.53;99302.72;5038562;28;20169;-68
2022/01/04 10:45:50;;;;;;;4.67;2.77;;;;;;;13.30;54.22;99300.28;5039843;28;20056;-68
2022/01/04 10:48:29;;;;;;;4.45;2.42;;;;;;;13.34;54.09;99304.44;5047002;28;20460;-68
2022/01/04 10:50:58;;;;;;;4.10;2.40;;;;;;;13.29;54.15;99288.53;5040817;28;20136;-68
2022/01/04 10:53:27;;;;;;;4.97;2.10;;;;;;;13.28;54.06;99285.97;5047454;28;20127;-68
2022/01/04 10:55:57;;;;;;;4.18;2.50;;;;;;;13.26;53.78;99293.44;5047245;28;20053;-67
2022/01/04 10:58:30;;;;;;;3.53;2.00;;;;;;;13.24;54.00;99288.16;5046231;28;20051;-68
2022/01/04 11:01:00;;;;;;;3.88;2.05;;;;;;;13.22;53.87;99272.97;5044585;28;20302;-69
2022/01/04 11:03:30;;;;;;;4.20;2.13;;;;;;;13.19;53.88;99285.03;5046733;28;20063;-69
2022/01/04 11:06:19;;;;;;;3.83;1.90;;;;;;;13.18;53.95;99288.78;5038445;28;20084;-69
2022/01/04 11:08:46;;;;;;;3.78;1.77;;;;;;;13.17;54.26;99287.09;5036513;28;20776;-69
2022/01/04 11:11:13;;;;;;;3.70;1.98;;;;;;;13.16;53.87;99279.06;5039650;28;20052;-69
2022/01/04 11:13:39;;;;;;;4.43;2.30;;;;;;;13.15;53.83;99270.03;5046837;28;20413;-69
2022/01/04 11:16:06;;;;;;;4.03;1.75;;;;;;;13.15;54.37;99272.75;5047779;28;20095;-69
2022/01/04 11:18:34;;;;;;;4.68;1.90;;;;;;;13.16;53.98;99288.09;5039408;28;20099;-69
2022/01/04 11:21:01;;;;;;;3.78;2.28;;;;;;;13.14;54.04;99286.53;5040080;28;20087;-69
2022/01/04 11:23:32;;;;;;;4.05;2.25;;;;;;;13.15;54.07;99294.56;5040808;28;20061;-68
2022/01/04 11:26:02;;;;;;;4.05;2.28;;;;;;;13.13;53.78;99298.41;5038667;28;20122;-70
2022/01/04 11:28:28;;;;;;;4.60;2.25;;;;;;;13.10;54.10;99294.13;5039897;28;20073;-69
2022/01/04 11:31:20;;;;;;;3.97;2.35;;;;;;;13.12;53.86;99294.81;5050590;28;20466;-69
2022/01/04 11:33:58;;;;;;;4.97;2.35;;;;;;;13.08;54.25;99292.59;5042485;28;20048;-70
2022/01/04 11:36:27;;;;;;;4.60;2.70;;;;;;;13.05;54.14;99291.00;5045833;28;20033;-69
2022/01/04 11:38:53;;;;;;;6.13;3.45;;;;;;;13.03;54.25;99284.84;5041538;28;20052;-69
2022/01/04 11:41:42;;;;;;;5.80;2.50;;;;;;;13.06;54.43;99283.69;5031482;28;20497;-69
2022/01/04 11:44:23;;;;;;;4.68;2.58;;;;;;;13.06;53.86;99287.28;5035129;28;20120;-67
2022/01/04 11:47:00;;;;;;;5.88;3.13;;;;;;;13.05;54.57;99282.84;5032714;28;20128;-68